createdAt,value
2022-12-27T00:01:53.454Z,3.15
2022-12-27T00:04:21.642Z,7.00
2022-12-27T00:06:51.720Z,6.78
2022-12-27T00:11:47.796Z,8.30
2022-12-27T00:14:16.473Z,7.40
2022-12-27T00:16:44.646Z,6.97
2022-12-27T00:19:12.935Z,4.22
2022-12-27T00:21:41.112Z,3.10
2022-12-27T00:24:13.243Z,8.20
2022-12-27T00:26:41.976Z,7.10
2022-12-27T00:29:11.205Z,6.40
2022-12-27T00:31:39.410Z,3.88
2022-12-27T00:34:08.763Z,4.88
2022-12-27T00:36:37.076Z,3.92
2022-12-27T00:39:06.041Z,5.97
2022-12-27T00:41:36.143Z,6.63
2022-12-27T00:46:32.422Z,7.20
2022-12-27T00:49:00.453Z,7.22
2022-12-27T00:51:28.689Z,3.97
2022-12-27T00:53:57.058Z,6.35
2022-12-27T00:56:27.181Z,5.80
2022-12-27T01:01:27.243Z,8.18
2022-12-27T01:03:57.858Z,7.70
2022-12-27T01:06:34.899Z,3.90
2022-12-27T01:09:04.291Z,8.73
2022-12-27T01:11:33.182Z,8.75
2022-12-27T01:14:04.933Z,4.97
2022-12-27T01:16:34.302Z,3.10
2022-12-27T01:19:02.641Z,8.38
2022-12-27T01:21:31.645Z,4.75
2022-12-27T01:24:02.733Z,5.22
2022-12-27T01:26:31.233Z,8.43
2022-12-27T01:28:59.371Z,5.30
2022-12-27T01:31:29.681Z,6.60
2022-12-27T01:33:59.095Z,8.05
2022-12-27T01:36:28.442Z,13.85
2022-12-27T01:38:59.726Z,9.77
2022-12-27T01:41:47.065Z,5.60
2022-12-27T01:44:54.210Z,5.78
2022-12-27T01:47:30.612Z,7.13
2022-12-27T01:50:04.612Z,6.18
2022-12-27T01:52:39.799Z,3.33
2022-12-27T01:55:14.492Z,8.95
2022-12-27T01:57:43.542Z,5.40
2022-12-27T02:00:13.034Z,4.25
2022-12-27T02:02:42.866Z,4.95
2022-12-27T02:05:13.449Z,12.00
2022-12-27T02:07:50.376Z,5.20
2022-12-27T02:10:19.421Z,6.60
2022-12-27T02:12:48.883Z,4.20
2022-12-27T02:15:17.042Z,6.90
2022-12-27T02:17:46.918Z,3.80
2022-12-27T02:20:17.756Z,8.20
2022-12-27T02:23:39.365Z,6.68
2022-12-27T02:26:47.753Z,5.28
2022-12-27T02:29:50.131Z,4.88
2022-12-27T02:32:24.323Z,5.05
2022-12-27T02:35:00.463Z,6.95
2022-12-27T02:37:33.697Z,5.32
2022-12-27T02:40:18.421Z,3.20
2022-12-27T02:43:05.507Z,4.15
2022-12-27T02:45:56.929Z,9.68
2022-12-27T02:48:42.486Z,3.90
2022-12-27T02:51:48.734Z,5.45
2022-12-27T02:54:31.574Z,10.77
2022-12-27T02:57:11.261Z,6.65
2022-12-27T03:00:22.749Z,4.10
2022-12-27T03:03:25.050Z,2.22
2022-12-27T03:06:29.610Z,7.72
2022-12-27T03:09:08.120Z,3.63
2022-12-27T03:12:02.205Z,8.57
2022-12-27T03:14:56.134Z,6.95
2022-12-27T03:17:31.601Z,3.97
2022-12-27T03:20:25.137Z,6.55
2022-12-27T03:23:12.435Z,6.85
2022-12-27T03:25:44.085Z,2.65
2022-12-27T03:28:35.229Z,1.40
2022-12-27T03:31:25.892Z,5.05
2022-12-27T03:34:04.692Z,6.88
2022-12-27T03:36:53.144Z,3.30
2022-12-27T03:39:28.621Z,3.22
2022-12-27T03:42:20.401Z,7.63
2022-12-27T03:44:49.134Z,2.55
2022-12-27T03:47:24.888Z,1.65
2022-12-27T03:50:00.034Z,2.92
2022-12-27T03:52:35.929Z,4.10
2022-12-27T03:55:04.616Z,4.10
2022-12-27T03:57:33.095Z,0.60
2022-12-27T04:00:01.216Z,3.03
2022-12-27T04:02:30.418Z,4.03
2022-12-27T04:04:58.643Z,3.88
2022-12-27T04:07:26.859Z,1.65
2022-12-27T04:10:13.789Z,2.83
2022-12-27T04:12:59.215Z,3.45
2022-12-27T04:15:44.781Z,2.20
2022-12-27T04:18:30.366Z,0.20
2022-12-27T04:21:16.519Z,1.70
2022-12-27T04:24:02.054Z,1.80
2022-12-27T04:26:49.024Z,2.03
2022-12-27T04:29:34.720Z,4.35
2022-12-27T04:32:20.233Z,4.13
2022-12-27T04:34:48.228Z,5.10
2022-12-27T04:37:19.079Z,11.73
2022-12-27T04:40:09.969Z,5.68
2022-12-27T04:42:56.650Z,1.65
2022-12-27T04:45:42.051Z,2.63
2022-12-27T04:48:31.111Z,3.33
2022-12-27T04:51:16.801Z,2.05
2022-12-27T04:54:02.351Z,4.13
2022-12-27T04:56:30.464Z,1.50
2022-12-27T04:59:13.788Z,3.13
2022-12-27T05:01:59.927Z,3.90
2022-12-27T05:04:28.307Z,1.63
2022-12-27T05:06:57.509Z,4.47
2022-12-27T05:09:43.487Z,1.83
2022-12-27T05:12:29.586Z,5.00
2022-12-27T05:15:01.754Z,3.13
2022-12-27T05:17:31.607Z,0.98
2022-12-27T05:19:59.760Z,1.75
2022-12-27T05:22:59.869Z,1.60
2022-12-27T05:25:38.258Z,5.45
2022-12-27T05:28:08.475Z,2.92
2022-12-27T05:33:08.085Z,5.78
2022-12-27T05:35:36.756Z,7.00
2022-12-27T05:38:05.551Z,3.72
2022-12-27T05:40:33.854Z,4.78
2022-12-27T05:43:02.897Z,2.42
2022-12-27T05:45:31.360Z,2.00
2022-12-27T05:48:01.458Z,7.18
2022-12-27T05:50:29.508Z,4.28
2022-12-27T05:52:57.943Z,8.48
2022-12-27T05:55:26.256Z,6.18
2022-12-27T05:57:54.368Z,4.85
2022-12-27T06:00:22.764Z,3.03
2022-12-27T06:02:50.930Z,6.85
2022-12-27T06:05:22.910Z,3.63
2022-12-27T06:07:51.156Z,5.88
2022-12-27T06:10:19.226Z,3.08
2022-12-27T06:12:47.434Z,8.07
2022-12-27T06:15:15.667Z,6.72
2022-12-27T06:17:44.460Z,5.05
2022-12-27T06:20:12.538Z,9.88
2022-12-27T06:22:42.161Z,6.68
2022-12-27T06:25:14.147Z,3.08
2022-12-27T06:27:42.965Z,6.07
2022-12-27T06:30:12.409Z,6.75
2022-12-27T06:32:40.916Z,4.40
2022-12-27T06:35:11.443Z,10.35
2022-12-27T06:37:39.652Z,3.90
2022-12-27T06:40:10.829Z,7.10
2022-12-27T06:42:38.903Z,2.70
2022-12-27T06:45:09.534Z,6.45
2022-12-27T06:47:37.645Z,8.05
2022-12-27T06:50:06.511Z,9.88
2022-12-27T06:52:34.949Z,2.67
2022-12-27T06:55:03.050Z,6.00
2022-12-27T06:57:32.501Z,7.78
2022-12-27T07:00:00.666Z,5.28
2022-12-27T07:02:29.129Z,4.43
2022-12-27T07:04:57.400Z,3.58
2022-12-27T07:07:25.714Z,5.10
2022-12-27T07:09:53.931Z,5.07
2022-12-27T07:12:21.958Z,5.13
2022-12-27T07:14:53.248Z,3.83
2022-12-27T07:17:22.708Z,5.28
2022-12-27T07:19:50.880Z,6.13
2022-12-27T07:22:18.995Z,8.65
2022-12-27T07:24:47.418Z,2.55
2022-12-27T07:27:16.375Z,2.28
2022-12-27T07:29:45.998Z,3.63
2022-12-27T07:32:15.630Z,4.35
2022-12-27T07:34:43.685Z,5.45
2022-12-27T07:37:11.961Z,6.70
2022-12-27T07:39:40.077Z,8.45
2022-12-27T07:42:08.624Z,8.73
2022-12-27T07:44:36.981Z,3.10
2022-12-27T07:47:05.684Z,2.65
2022-12-27T07:49:35.131Z,3.50
2022-12-27T07:52:03.475Z,5.28
2022-12-27T07:54:34.805Z,3.95
2022-12-27T07:57:05.419Z,3.28
2022-12-27T07:59:33.671Z,3.67
2022-12-27T08:02:07.868Z,2.70
2022-12-27T08:04:38.630Z,7.95
2022-12-27T08:07:10.324Z,5.32
2022-12-27T08:09:41.676Z,3.38
2022-12-27T08:12:10.707Z,1.23
2022-12-27T08:14:38.742Z,2.08
2022-12-27T08:17:09.195Z,4.70
2022-12-27T08:19:38.939Z,6.47
2022-12-27T08:22:07.207Z,4.60
2022-12-27T08:24:35.280Z,7.95
2022-12-27T08:27:03.980Z,2.75
2022-12-27T08:29:32.141Z,3.85
2022-12-27T08:32:00.795Z,5.40
2022-12-27T08:34:28.909Z,0.95
2022-12-27T08:36:58.804Z,3.55
2022-12-27T08:39:30.122Z,6.70
2022-12-27T08:41:58.434Z,4.07
2022-12-27T08:44:27.489Z,3.63
2022-12-27T08:46:55.554Z,1.77
2022-12-27T08:49:23.716Z,6.43
2022-12-27T08:51:51.916Z,4.75
2022-12-27T08:54:21.533Z,2.72
2022-12-27T08:56:49.599Z,1.25
2022-12-27T08:59:17.798Z,0.82
2022-12-27T09:01:46.135Z,2.72
2022-12-27T09:04:14.223Z,1.25
2022-12-27T09:06:42.614Z,0.77
2022-12-27T09:09:10.728Z,3.08
2022-12-27T09:11:40.279Z,1.55
2022-12-27T09:14:08.378Z,3.63
2022-12-27T09:16:37.282Z,1.35
2022-12-27T09:19:05.876Z,2.80
2022-12-27T09:21:35.342Z,7.03
2022-12-27T09:24:05.710Z,0.28
2022-12-27T09:26:33.893Z,0.38
2022-12-27T09:29:03.435Z,0.05
2022-12-27T09:31:31.686Z,0.57
2022-12-27T09:34:00.299Z,1.85
2022-12-27T09:36:29.965Z,0.70
2022-12-27T09:39:00.905Z,0.68
2022-12-27T09:44:47.373Z,0.38
2022-12-27T09:47:20.686Z,0.00
2022-12-27T09:49:53.737Z,0.38
2022-12-27T09:52:27.606Z,1.13
2022-12-27T09:55:04.713Z,0.10
2022-12-27T09:57:37.664Z,0.10
2022-12-27T10:00:16.195Z,0.00
2022-12-27T10:02:45.593Z,0.10
2022-12-27T10:05:22.776Z,2.10
2022-12-27T10:08:21.104Z,0.32
2022-12-27T10:11:33.825Z,0.15
2022-12-27T10:14:15.459Z,0.03
2022-12-27T10:17:01.303Z,0.15
2022-12-27T10:19:39.704Z,1.02
2022-12-27T10:22:21.981Z,0.30
2022-12-27T10:24:52.761Z,0.00
2022-12-27T10:27:29.107Z,0.75
2022-12-27T10:29:59.169Z,0.15
2022-12-27T10:32:47.128Z,0.57
2022-12-27T10:35:29.288Z,0.32
2022-12-27T10:38:00.973Z,1.05
2022-12-27T10:40:36.954Z,0.43
2022-12-27T10:43:07.020Z,0.55
2022-12-27T10:45:39.835Z,0.28
2022-12-27T10:48:22.151Z,0.00
2022-12-27T10:50:59.268Z,0.28
2022-12-27T10:53:39.239Z,0.00
2022-12-27T10:56:10.300Z,0.38
2022-12-27T10:58:46.667Z,0.82
2022-12-27T11:01:21.010Z,3.92
2022-12-27T11:04:21.561Z,0.85
2022-12-27T11:06:54.907Z,0.30
2022-12-27T11:09:42.408Z,0.32
2022-12-27T11:12:25.908Z,1.48
2022-12-27T11:14:57.778Z,0.30
2022-12-27T11:17:29.585Z,0.95
2022-12-27T11:20:02.164Z,0.50
2022-12-27T11:22:31.151Z,1.15
2022-12-27T11:25:02.041Z,1.67
2022-12-27T11:27:31.802Z,0.50
2022-12-27T11:30:01.108Z,0.93
2022-12-27T11:32:29.243Z,0.50
2022-12-27T11:35:02.200Z,0.88
2022-12-27T11:37:30.491Z,0.32
2022-12-27T11:40:23.288Z,0.20
2022-12-27T11:42:54.588Z,0.70
2022-12-27T11:45:27.309Z,1.88
2022-12-27T11:48:01.340Z,0.85
2022-12-27T11:50:49.402Z,1.63
2022-12-27T11:53:54.212Z,0.82
2022-12-27T11:56:26.832Z,1.20
2022-12-27T11:59:16.156Z,2.38
2022-12-27T12:02:17.084Z,1.70
2022-12-27T12:05:21.719Z,1.48
2022-12-27T12:08:12.555Z,1.88
2022-12-27T12:10:50.634Z,1.65
2022-12-27T12:13:33.511Z,0.20
2022-12-27T12:16:26.705Z,0.28
2022-12-27T12:19:08.996Z,0.65
2022-12-27T12:21:44.767Z,1.02
2022-12-27T12:24:37.506Z,2.58
2022-12-27T12:27:32.352Z,0.30
2022-12-27T12:30:33.121Z,0.82
2022-12-27T12:33:23.730Z,0.43
2022-12-27T12:36:15.123Z,0.17
2022-12-27T12:38:51.051Z,0.30
2022-12-27T12:41:39.008Z,0.35
2022-12-27T12:44:41.160Z,1.05
2022-12-27T12:47:24.717Z,0.50
2022-12-27T12:50:19.755Z,1.95
2022-12-27T12:53:19.701Z,1.65
2022-12-27T12:55:59.981Z,2.10
2022-12-27T12:58:43.201Z,1.30
2022-12-27T13:01:42.784Z,1.10
2022-12-27T13:04:31.058Z,0.82
2022-12-27T13:07:23.118Z,0.40
2022-12-27T13:10:17.047Z,1.42
2022-12-27T13:12:54.067Z,1.65
2022-12-27T13:15:32.708Z,2.15
2022-12-27T13:18:12.262Z,3.97
2022-12-27T13:21:00.606Z,0.80
2022-12-27T13:23:48.906Z,4.00
2022-12-27T13:26:25.807Z,1.48
2022-12-27T13:29:12.187Z,1.35
2022-12-27T13:31:48.992Z,2.78
2022-12-27T13:34:30.106Z,1.02
2022-12-27T13:37:12.693Z,0.70
2022-12-27T13:39:52.992Z,1.30
2022-12-27T13:42:43.127Z,1.05
2022-12-27T13:45:23.219Z,1.05
2022-12-27T13:48:06.111Z,0.90
2022-12-27T13:50:53.263Z,0.82
2022-12-27T13:53:56.423Z,1.25
2022-12-27T13:59:52.261Z,1.35
2022-12-27T14:02:53.648Z,0.25
2022-12-27T14:05:53.293Z,0.75
2022-12-27T14:08:34.395Z,0.85
2022-12-27T14:11:03.345Z,0.20
2022-12-27T14:13:35.977Z,0.25
2022-12-27T14:16:30.179Z,0.30
2022-12-27T14:19:31.465Z,0.60
2022-12-27T14:22:17.683Z,0.60
2022-12-27T14:25:22.994Z,3.45
2022-12-27T14:28:24.288Z,2.33
2022-12-27T14:31:27.889Z,5.53
2022-12-27T14:34:35.912Z,2.97
2022-12-27T14:37:40.068Z,8.27
2022-12-27T14:40:35.908Z,8.38
2022-12-27T14:43:36.405Z,3.47
2022-12-27T14:46:54.821Z,9.05
2022-12-27T14:49:51.267Z,8.70
2022-12-27T14:52:58.053Z,9.18
2022-12-27T14:55:48.225Z,14.13
2022-12-27T15:01:09.703Z,8.43
2022-12-27T15:04:44.372Z,11.02
2022-12-27T15:07:45.081Z,9.00
2022-12-27T15:10:21.052Z,11.23
2022-12-27T15:13:00.100Z,6.55
2022-12-27T15:15:37.638Z,6.35
2022-12-27T15:18:29.640Z,8.77
2022-12-27T15:21:24.188Z,9.30
2022-12-27T15:23:55.266Z,10.32
2022-12-27T15:26:31.748Z,8.23
2022-12-27T15:29:14.233Z,10.38
2022-12-27T15:31:54.200Z,18.55
2022-12-27T15:34:37.359Z,8.00
2022-12-27T15:37:06.516Z,5.20
2022-12-27T15:39:51.272Z,11.65
2022-12-27T15:42:48.595Z,9.20
2022-12-27T15:45:31.620Z,9.27
2022-12-27T15:48:35.738Z,8.05
2022-12-27T15:51:16.305Z,10.60
2022-12-27T15:54:13.855Z,14.88
2022-12-27T15:56:55.410Z,12.55
2022-12-27T15:59:47.194Z,9.95
2022-12-27T16:02:34.045Z,9.70
2022-12-27T16:05:14.901Z,13.07
2022-12-27T16:07:46.430Z,14.30
2022-12-27T16:10:48.076Z,12.23
2022-12-27T16:13:29.117Z,14.77
2022-12-27T16:15:58.511Z,8.70
2022-12-27T16:18:56.209Z,10.25
2022-12-27T16:21:26.359Z,15.80
2022-12-27T16:26:30.858Z,11.43
2022-12-27T16:29:02.024Z,6.90
2022-12-27T16:31:32.421Z,17.17
2022-12-27T16:34:14.278Z,19.95
2022-12-27T16:36:51.436Z,24.23
2022-12-27T16:39:58.528Z,32.97
2022-12-27T16:43:19.316Z,18.27
2022-12-27T16:45:55.457Z,15.10
2022-12-27T16:48:36.341Z,7.80
2022-12-27T16:51:18.379Z,10.68
2022-12-27T16:54:03.434Z,14.32
2022-12-27T16:56:33.698Z,16.52
2022-12-27T16:59:01.912Z,18.42
2022-12-27T17:01:46.324Z,15.80
2022-12-27T17:04:47.581Z,9.13
2022-12-27T17:07:42.474Z,9.32
2022-12-27T17:10:43.937Z,16.20
2022-12-27T17:13:18.946Z,15.48
2022-12-27T17:15:54.805Z,18.02
2022-12-27T17:18:30.453Z,11.27
2022-12-27T17:21:03.812Z,15.98
2022-12-27T17:23:42.680Z,16.42
2022-12-27T17:26:39.425Z,18.67
2022-12-27T17:29:29.340Z,16.02
2022-12-27T17:32:11.126Z,23.27
2022-12-27T17:34:52.690Z,10.02
2022-12-27T17:37:29.180Z,14.63
2022-12-27T17:40:12.234Z,15.13
2022-12-27T17:43:08.977Z,13.70
2022-12-27T17:46:03.855Z,13.90
2022-12-27T17:48:33.807Z,11.13
2022-12-27T17:51:06.232Z,15.65
2022-12-27T17:53:51.950Z,10.77
2022-12-27T17:56:41.263Z,14.65
2022-12-27T17:59:16.354Z,10.48
2022-12-27T18:01:51.612Z,11.00
2022-12-27T18:04:25.726Z,13.00
2022-12-27T18:06:58.510Z,14.95
2022-12-27T18:09:44.606Z,11.20
2022-12-27T18:12:21.532Z,13.88
2022-12-27T18:14:58.304Z,17.80
2022-12-27T18:17:37.684Z,14.93
2022-12-27T18:20:29.167Z,13.30
2022-12-27T18:23:14.775Z,17.10
2022-12-27T18:25:56.603Z,14.85
2022-12-27T18:28:33.032Z,13.48
2022-12-27T18:31:06.999Z,19.02
2022-12-27T18:33:44.003Z,12.68
2022-12-27T18:36:16.517Z,11.25
2022-12-27T18:38:48.443Z,22.65
2022-12-27T18:41:20.848Z,27.63
2022-12-27T18:43:54.269Z,18.95
2022-12-27T18:46:27.884Z,15.98
2022-12-27T18:48:56.289Z,18.17
2022-12-27T18:51:32.721Z,13.52
2022-12-27T18:54:01.207Z,12.80
2022-12-27T18:56:32.660Z,15.70
2022-12-27T18:59:06.055Z,17.05
2022-12-27T19:01:42.724Z,14.05
2022-12-27T19:04:23.641Z,12.00
2022-12-27T19:07:05.520Z,14.93
2022-12-27T19:09:38.055Z,16.55
2022-12-27T19:12:09.863Z,19.38
2022-12-27T19:14:47.302Z,31.23
2022-12-27T19:17:20.800Z,19.63
2022-12-27T19:19:52.713Z,21.58
2022-12-27T19:22:43.622Z,21.23
2022-12-27T19:25:23.077Z,15.40
2022-12-27T19:27:59.398Z,15.93
2022-12-27T19:30:39.367Z,15.52
2022-12-27T19:33:13.945Z,15.57
2022-12-27T19:35:43.357Z,13.75
2022-12-27T19:38:24.467Z,13.15
2022-12-27T19:41:01.325Z,14.88
2022-12-27T19:43:37.633Z,19.15
2022-12-27T19:46:07.495Z,15.52
2022-12-27T19:48:35.951Z,14.85
2022-12-27T19:51:04.803Z,20.90
2022-12-27T19:53:39.920Z,17.67
2022-12-27T19:56:12.192Z,26.10
2022-12-27T19:58:40.433Z,27.13
2022-12-27T20:01:11.315Z,18.35
2022-12-27T20:03:40.982Z,21.45
2022-12-27T20:06:14.815Z,23.08
2022-12-27T20:08:51.632Z,18.50
2022-12-27T20:11:22.048Z,16.90
2022-12-27T20:13:53.685Z,21.23
2022-12-27T20:16:27.492Z,19.67
2022-12-27T20:18:55.612Z,19.20
2022-12-27T20:21:24.101Z,16.05
2022-12-27T20:23:54.210Z,15.05
2022-12-27T20:28:59.035Z,13.68
2022-12-27T20:31:42.156Z,16.45
2022-12-27T20:34:12.908Z,10.85
2022-12-27T20:36:42.054Z,14.10
2022-12-27T20:39:16.687Z,20.30
2022-12-27T20:41:56.082Z,19.25
2022-12-27T20:44:24.597Z,15.18
2022-12-27T20:46:57.088Z,18.98
2022-12-27T20:49:29.187Z,15.13
2022-12-27T20:51:57.651Z,20.88
2022-12-27T20:54:28.612Z,16.08
2022-12-27T20:56:56.811Z,15.38
2022-12-27T20:59:25.338Z,15.27
2022-12-27T21:01:58.534Z,17.83
2022-12-27T21:04:27.272Z,20.85
2022-12-27T21:06:59.391Z,23.63
2022-12-27T21:09:28.240Z,12.88
2022-12-27T21:11:56.273Z,17.40
2022-12-27T21:14:25.020Z,13.25
2022-12-27T21:16:56.033Z,17.20
2022-12-27T21:19:27.494Z,23.10
2022-12-27T21:21:58.193Z,14.82
2022-12-27T21:24:29.219Z,13.77
2022-12-27T21:26:57.709Z,19.70
2022-12-27T21:29:29.002Z,15.88
2022-12-27T21:32:01.599Z,14.40
2022-12-27T21:34:56.386Z,16.65
2022-12-27T21:37:26.102Z,15.85
2022-12-27T21:39:56.457Z,16.35
2022-12-27T21:42:26.223Z,18.63
2022-12-27T21:44:55.543Z,14.02
2022-12-27T21:47:29.354Z,12.70
2022-12-27T21:49:59.063Z,16.88
2022-12-27T21:52:31.167Z,18.35
2022-12-27T21:54:59.277Z,22.08
2022-12-27T21:57:28.225Z,27.95
2022-12-27T21:59:59.403Z,23.40
2022-12-27T22:02:31.136Z,25.40
2022-12-27T22:05:05.642Z,21.52
2022-12-27T22:07:40.706Z,21.50
2022-12-27T22:10:19.377Z,19.25
2022-12-27T22:12:50.279Z,12.45
2022-12-27T22:15:36.834Z,28.75
2022-12-27T22:18:05.211Z,17.80
2022-12-27T22:20:37.124Z,14.82
2022-12-27T22:23:12.674Z,16.95
2022-12-27T22:25:42.930Z,15.60
2022-12-27T22:30:44.792Z,18.25
2022-12-27T22:33:27.739Z,15.85
2022-12-27T22:36:05.038Z,18.55
2022-12-27T22:38:34.012Z,15.68
2022-12-27T22:41:12.706Z,13.07
2022-12-27T22:43:41.817Z,20.60
2022-12-27T22:46:18.849Z,21.05
2022-12-27T22:48:50.793Z,18.05
2022-12-27T22:51:21.997Z,18.95
2022-12-27T22:53:57.004Z,14.20
2022-12-27T22:56:30.616Z,22.60
2022-12-27T22:58:59.700Z,16.10
2022-12-27T23:01:34.017Z,16.05
2022-12-27T23:04:05.241Z,21.45
2022-12-27T23:06:37.006Z,14.73
2022-12-27T23:09:31.495Z,14.35
2022-12-27T23:12:06.919Z,24.75
2022-12-27T23:14:35.030Z,12.93
2022-12-27T23:17:11.837Z,16.98
2022-12-27T23:19:40.087Z,19.48
2022-12-27T23:22:10.820Z,18.60
2022-12-27T23:24:42.207Z,14.68
2022-12-27T23:27:12.548Z,20.45
2022-12-27T23:29:41.554Z,18.95
2022-12-27T23:32:10.384Z,14.57
2022-12-27T23:34:39.769Z,17.27
2022-12-27T23:37:10.450Z,12.60
2022-12-27T23:39:39.433Z,8.32
2022-12-27T23:42:11.092Z,18.05
2022-12-27T23:44:48.024Z,8.57
2022-12-27T23:47:16.167Z,13.65
2022-12-27T23:49:44.346Z,26.20
2022-12-27T23:52:18.571Z,19.23
2022-12-27T23:54:48.660Z,14.70
2022-12-27T23:57:22.415Z,12.07
2022-12-27T23:59:51.870Z,13.45
